Terminal Aerodrome Forecast
Issued by NWS Newport/Morehead City, NC

Home | Current Version | Previous Version | Graphics & Text | Print | Product List | Glossary On
Versions: 1 2 3 4 5 6 7 8 9 10 11 12 13 14 15 16 17 18 19 20
000
FTUS42 KMHX 240154 AAC
TAFEWN
TAF AMD
KEWN 240154Z 2402/2424 VRB06KT P6SM -SHRA BKN080
      TEMPO 2402/2404 VRB06G15KT 4SM TSRA SCT009 BKN025CB
     FM240700 VRB03KT 3SM BR VCSH SCT009 OVC020
     FM241400 35005KT P6SM BKN035=

USA.gov is the U.S. government's official web portal to all federal, state and local government web resources and services.